createdAt,value
2023-05-14T08:09:05.335Z,65.86
2023-05-14T08:14:08.777Z,67.41
2023-05-14T08:19:14.277Z,64.15
2023-05-14T08:24:20.076Z,63.78
2023-05-14T08:29:28.133Z,63.22
2023-05-14T08:34:31.639Z,63.49
2023-05-14T08:39:36.382Z,62.69
2023-05-14T08:44:46.774Z,63.71
2023-05-14T08:49:53.566Z,60.12
2023-05-14T08:55:00.145Z,59.49
2023-05-14T09:00:08.252Z,59.19
2023-05-14T09:05:12.334Z,58.07
2023-05-14T09:10:18.373Z,57.03
2023-05-14T09:15:21.678Z,56.56
2023-05-14T09:20:25.877Z,56.36
2023-05-14T09:25:32.006Z,54.87
2023-05-14T09:30:37.068Z,54.30
2023-05-14T09:35:43.309Z,52.66
2023-05-14T09:40:47.950Z,53.23
2023-05-14T09:45:51.368Z,53.47
2023-05-14T09:50:54.741Z,53.63
2023-05-14T09:55:59.449Z,53.26
2023-05-14T10:01:03.211Z,53.37
2023-05-14T10:06:07.590Z,52.91
2023-05-14T10:11:14.272Z,53.48
2023-05-14T10:16:21.118Z,53.34
2023-05-14T10:21:24.689Z,52.79
2023-05-14T10:26:29.606Z,51.47
2023-05-14T10:31:53.641Z,50.46
2023-05-14T10:36:59.891Z,49.66
2023-05-14T10:42:05.440Z,47.56
2023-05-14T10:47:08.756Z,48.27
2023-05-14T10:52:12.837Z,48.28
2023-05-14T10:57:18.588Z,48.60
2023-05-14T11:02:22.941Z,48.54
2023-05-14T11:07:28.946Z,48.86
2023-05-14T11:12:34.602Z,49.17
2023-05-14T11:17:38.699Z,49.47
2023-05-14T11:22:43.058Z,49.77
2023-05-14T11:27:48.227Z,49.81
2023-05-14T11:32:51.882Z,49.95
2023-05-14T11:37:55.425Z,50.33
2023-05-14T11:43:00.150Z,50.00
2023-05-14T11:48:03.734Z,50.15
2023-05-14T11:53:07.162Z,49.74
2023-05-14T11:58:11.895Z,49.20
2023-05-14T12:03:15.652Z,50.17
2023-05-14T12:08:22.370Z,52.14
2023-05-14T12:13:31.960Z,56.87
2023-05-14T12:18:35.614Z,55.00
2023-05-14T12:23:39.549Z,53.27
2023-05-14T12:28:44.189Z,53.99
2023-05-14T12:33:47.508Z,55.02
2023-05-14T12:38:50.898Z,52.65
2023-05-14T12:43:55.513Z,53.02
2023-05-14T12:48:58.893Z,50.83
2023-05-14T12:54:04.454Z,51.54
2023-05-14T12:59:09.460Z,51.46
2023-05-14T13:04:13.786Z,48.60
2023-05-14T13:09:17.029Z,49.02
2023-05-14T13:14:21.630Z,49.63
2023-05-14T13:19:25.007Z,50.66
2023-05-14T13:24:28.436Z,50.57
2023-05-14T13:29:33.041Z,49.38
2023-05-14T13:34:36.520Z,49.77
2023-05-14T13:39:41.141Z,49.63
2023-05-14T13:44:46.205Z,49.07
2023-05-14T19:17:32.751Z,75.98
2023-05-14T19:22:37.464Z,78.44
2023-05-14T19:27:45.627Z,79.09
2023-05-14T19:32:51.845Z,80.59
2023-05-14T19:38:20.916Z,81.05
2023-05-14T19:43:25.441Z,80.85
2023-05-14T19:48:33.543Z,81.30
2023-05-14T19:53:36.952Z,81.46
2023-05-14T19:58:40.268Z,82.78
2023-05-14T20:03:45.256Z,83.31
2023-05-14T20:08:48.916Z,83.52
2023-05-14T20:13:53.618Z,84.45
2023-05-14T20:19:01.574Z,84.99
2023-05-14T20:24:05.240Z,85.41
2023-05-14T20:29:10.892Z,86.44
2023-05-14T20:34:19.285Z,87.26
2023-05-14T20:39:22.784Z,87.17
2023-05-14T20:44:26.228Z,87.13
2023-05-14T20:49:32.809Z,90.76
2023-05-14T20:54:36.590Z,93.70
2023-05-14T20:59:40.210Z,93.76
2023-05-14T21:04:45.369Z,97.56
2023-05-14T21:09:52.290Z,96.80
2023-05-14T21:14:55.908Z,98.84
2023-05-14T21:20:03.673Z,100.00
2023-05-14T21:25:11.017Z,100.00
2023-05-14T21:30:14.942Z,100.00
2023-05-14T21:35:19.994Z,100.00
2023-05-14T21:40:23.836Z,100.00
2023-05-14T21:45:27.502Z,100.00
2023-05-14T21:50:32.582Z,100.00
2023-05-14T21:55:36.227Z,100.00
